createdAt,value
2017-10-29T00:00:43.480Z,9.13
2017-10-29T00:02:36.348Z,9.10
2017-10-29T00:03:36.301Z,9.11
2017-10-29T00:05:29.147Z,9.13
2017-10-29T00:06:29.121Z,9.00
2017-10-29T00:08:21.990Z,8.97
2017-10-29T00:09:21.943Z,8.99
2017-10-29T00:11:14.793Z,9.02
2017-10-29T00:12:14.765Z,8.99
2017-10-29T00:14:08.133Z,8.97
2017-10-29T00:15:08.075Z,8.95
2017-10-29T00:17:01.412Z,8.84
2017-10-29T00:18:01.389Z,8.73
2017-10-29T00:19:54.259Z,8.73
2017-10-29T00:20:54.213Z,8.69
2017-10-29T00:22:47.063Z,8.63
2017-10-29T00:23:47.040Z,8.64
2017-10-29T00:25:40.904Z,8.52
2017-10-29T00:26:40.855Z,8.51
2017-10-29T00:28:34.184Z,8.55
2017-10-29T00:29:34.163Z,8.56
2017-10-29T00:31:27.031Z,8.51
2017-10-29T00:32:26.988Z,8.42
2017-10-29T00:34:19.828Z,8.30
2017-10-29T00:35:19.806Z,8.37
2017-10-29T00:37:13.164Z,8.34
2017-10-29T00:38:13.119Z,8.36
2017-10-29T00:40:06.459Z,8.37
2017-10-29T00:41:06.430Z,8.26
2017-10-29T00:42:59.310Z,8.34
2017-10-29T00:43:59.251Z,8.28
2017-10-29T00:45:52.094Z,8.41
2017-10-29T00:46:52.070Z,8.36
2017-10-29T00:48:44.932Z,8.38
2017-10-29T00:49:44.886Z,8.46
2017-10-29T00:51:37.731Z,8.30
2017-10-29T00:52:37.709Z,8.26
2017-10-29T00:54:30.573Z,8.36
2017-10-29T00:55:30.528Z,8.27
2017-10-29T00:57:23.373Z,8.38
2017-10-29T00:58:23.351Z,8.44
2017-10-29T01:00:16.714Z,8.31
2017-10-29T01:01:16.660Z,8.33
2017-10-29T01:03:09.501Z,8.41
2017-10-29T01:04:09.477Z,8.48
2017-10-29T01:06:02.342Z,8.45
2017-10-29T01:07:02.296Z,8.34
2017-10-29T01:08:55.137Z,8.34
2017-10-29T01:09:55.114Z,8.42
2017-10-29T01:11:47.986Z,8.42
2017-10-29T01:12:47.938Z,8.46
2017-10-29T01:14:41.276Z,8.38
2017-10-29T01:15:41.247Z,8.49
2017-10-29T01:17:34.118Z,8.44
2017-10-29T01:18:34.068Z,8.52
2017-10-29T01:20:26.914Z,8.48
2017-10-29T01:21:26.887Z,8.46
2017-10-29T01:23:19.755Z,8.45
2017-10-29T01:24:19.706Z,8.38
2017-10-29T01:26:12.550Z,8.51
2017-10-29T01:27:12.525Z,8.45
2017-10-29T01:29:05.396Z,8.52
2017-10-29T01:30:05.351Z,8.52
2017-10-29T01:31:58.189Z,8.44
2017-10-29T01:32:58.166Z,8.45
2017-10-29T01:34:51.035Z,8.49
2017-10-29T01:35:50.987Z,8.36
2017-10-29T01:37:43.834Z,8.49
2017-10-29T01:38:43.808Z,8.51
2017-10-29T01:40:36.680Z,8.49
2017-10-29T01:41:36.628Z,8.53
2017-10-29T01:43:29.471Z,8.53
2017-10-29T01:44:29.447Z,8.48
2017-10-29T01:46:22.318Z,8.53
2017-10-29T01:47:22.268Z,8.51
2017-10-29T01:49:15.111Z,8.56
2017-10-29T01:50:15.088Z,8.48
2017-10-29T01:52:07.952Z,8.51
2017-10-29T01:53:07.906Z,8.46
2017-10-29T01:55:00.751Z,8.48
2017-10-29T01:56:00.726Z,8.46
2017-10-29T01:57:53.602Z,8.52
2017-10-29T01:58:53.544Z,8.52
2017-10-29T02:00:46.388Z,8.51
2017-10-29T02:01:46.363Z,8.48
2017-10-29T02:03:39.234Z,8.46
2017-10-29T02:04:39.185Z,8.48
2017-10-29T02:06:32.030Z,8.66
2017-10-29T02:07:32.007Z,8.61
2017-10-29T02:09:25.365Z,8.60
2017-10-29T02:10:25.326Z,8.58
2017-10-29T02:12:18.159Z,8.56
2017-10-29T02:13:18.142Z,8.63
2017-10-29T02:15:11.000Z,8.60
2017-10-29T02:16:10.955Z,8.64
2017-10-29T02:18:03.808Z,8.63
2017-10-29T02:19:03.788Z,8.61
2017-10-29T02:20:56.646Z,8.66
2017-10-29T02:21:56.600Z,8.55
2017-10-29T02:23:49.445Z,8.58
2017-10-29T02:24:49.420Z,8.69
2017-10-29T02:26:42.287Z,8.79
2017-10-29T02:27:42.246Z,8.67
2017-10-29T02:29:35.078Z,8.79
2017-10-29T02:30:35.060Z,8.73
2017-10-29T02:32:27.921Z,8.87
2017-10-29T02:33:27.875Z,8.74
2017-10-29T02:35:21.208Z,8.85
2017-10-29T02:36:21.185Z,8.73
2017-10-29T02:38:14.059Z,8.84
2017-10-29T02:39:14.006Z,8.85
2017-10-29T02:41:06.845Z,8.97
2017-10-29T02:42:06.821Z,9.00
2017-10-29T02:43:59.686Z,9.02
2017-10-29T02:44:59.642Z,9.03
2017-10-29T02:46:52.501Z,8.94
2017-10-29T02:47:52.462Z,9.00
2017-10-29T02:49:45.329Z,9.03
2017-10-29T02:50:45.284Z,8.94
2017-10-29T02:52:38.619Z,9.04
2017-10-29T02:53:38.593Z,8.95
2017-10-29T02:55:31.459Z,9.03
2017-10-29T02:56:31.413Z,8.95
2017-10-29T02:58:24.259Z,8.97
2017-10-29T02:59:24.232Z,8.97
2017-10-29T03:01:17.111Z,9.04
2017-10-29T03:02:17.053Z,9.03
2017-10-29T03:04:09.893Z,9.06
2017-10-29T03:05:09.873Z,9.10
2017-10-29T03:07:02.758Z,8.99
2017-10-29T03:08:02.690Z,8.99
2017-10-29T03:09:55.532Z,9.14
2017-10-29T03:10:55.521Z,9.00
2017-10-29T03:12:48.421Z,9.13
2017-10-29T03:13:48.375Z,9.11
2017-10-29T03:15:41.721Z,9.08
2017-10-29T03:16:41.696Z,9.11
2017-10-29T03:18:35.054Z,9.16
2017-10-29T03:19:35.006Z,9.22
2017-10-29T03:21:28.345Z,9.21
2017-10-29T03:22:28.318Z,9.18
2017-10-29T03:24:21.188Z,9.19
2017-10-29T03:25:21.141Z,9.14
2017-10-29T03:27:15.478Z,9.18
2017-10-29T03:28:15.454Z,9.14
2017-10-29T03:30:08.318Z,9.29
2017-10-29T03:31:08.273Z,9.28
2017-10-29T03:33:01.114Z,9.31
2017-10-29T03:34:01.090Z,9.32
2017-10-29T03:35:53.971Z,9.34
2017-10-29T03:36:53.915Z,9.40
2017-10-29T03:38:46.755Z,9.40
2017-10-29T03:39:46.731Z,9.36
2017-10-29T03:41:39.597Z,9.41
2017-10-29T03:42:39.553Z,9.40
2017-10-29T03:44:32.901Z,9.40
2017-10-29T03:45:32.880Z,9.44
2017-10-29T03:47:25.735Z,9.51
2017-10-29T03:48:25.694Z,9.44
2017-10-29T03:50:18.537Z,9.40
2017-10-29T03:51:18.511Z,9.46
2017-10-29T03:53:11.386Z,9.47
2017-10-29T03:54:11.333Z,9.41
2017-10-29T03:56:04.188Z,9.51
2017-10-29T03:57:04.156Z,9.41
2017-10-29T03:58:57.043Z,9.46
2017-10-29T03:59:56.986Z,9.51
2017-10-29T04:01:50.328Z,9.59
2017-10-29T04:02:50.303Z,9.51
2017-10-29T04:04:43.665Z,9.56
2017-10-29T04:05:43.619Z,9.59
2017-10-29T04:07:36.459Z,9.59
2017-10-29T04:08:36.437Z,9.61
2017-10-29T04:10:29.797Z,9.66
2017-10-29T04:11:29.748Z,9.59
2017-10-29T04:13:22.684Z,9.62
2017-10-29T04:14:22.567Z,9.50
2017-10-29T04:16:15.946Z,9.64
2017-10-29T04:17:15.890Z,9.68
2017-10-29T04:19:08.737Z,9.65
2017-10-29T04:20:08.714Z,9.72
2017-10-29T04:22:02.077Z,9.74
2017-10-29T04:23:02.028Z,9.73
2017-10-29T04:24:55.364Z,9.74
2017-10-29T04:25:55.339Z,9.73
2017-10-29T04:27:48.702Z,9.83
2017-10-29T04:28:48.653Z,9.87
2017-10-29T04:30:41.992Z,9.94
2017-10-29T04:31:41.968Z,10.04
2017-10-29T04:33:35.325Z,10.01
2017-10-29T04:34:35.281Z,10.04
2017-10-29T04:36:28.131Z,10.15
2017-10-29T04:37:28.105Z,10.20
2017-10-29T04:39:20.985Z,10.30
2017-10-29T04:40:20.931Z,10.25
2017-10-29T04:42:14.277Z,10.34
2017-10-29T04:43:14.254Z,10.33
2017-10-29T04:45:07.120Z,10.64
2017-10-29T04:46:07.074Z,10.64
2017-10-29T04:47:59.923Z,10.64
2017-10-29T04:48:59.899Z,10.63
2017-10-29T04:50:53.268Z,10.63
2017-10-29T04:51:53.223Z,10.75
2017-10-29T04:53:46.091Z,10.79
2017-10-29T04:54:46.047Z,10.69
2017-10-29T04:56:38.914Z,10.64
2017-10-29T04:57:38.869Z,10.64
2017-10-29T04:59:32.208Z,10.64
2017-10-29T05:00:32.184Z,10.72
2017-10-29T05:02:25.050Z,10.81
2017-10-29T05:03:25.004Z,10.75
2017-10-29T05:05:17.857Z,10.72
2017-10-29T05:06:17.834Z,10.76
2017-10-29T05:08:10.710Z,10.87
2017-10-29T05:09:10.653Z,10.79
2017-10-29T05:11:03.498Z,10.72
2017-10-29T05:12:03.485Z,10.71
2017-10-29T05:13:56.838Z,10.69
2017-10-29T05:14:56.788Z,10.71
2017-10-29T05:16:49.633Z,10.67
2017-10-29T05:17:49.612Z,10.69
2017-10-29T05:19:42.482Z,10.74
2017-10-29T05:20:42.436Z,10.78
2017-10-29T05:22:35.280Z,10.81
2017-10-29T05:23:35.259Z,10.76
2017-10-29T05:25:28.127Z,10.74
2017-10-29T05:26:28.084Z,10.76
2017-10-29T05:28:21.420Z,10.87
2017-10-29T05:29:21.396Z,10.92
2017-10-29T05:31:14.757Z,10.79
2017-10-29T05:32:14.718Z,10.87
2017-10-29T05:34:08.061Z,10.86
2017-10-29T05:35:08.038Z,10.86
2017-10-29T05:37:00.906Z,10.93
2017-10-29T05:38:00.861Z,10.92
2017-10-29T05:39:53.705Z,11.00
2017-10-29T05:40:53.682Z,10.90
2017-10-29T05:42:46.563Z,10.92
2017-10-29T05:43:46.505Z,10.87
2017-10-29T05:45:39.351Z,10.94
2017-10-29T05:46:39.327Z,10.94
2017-10-29T05:48:32.197Z,10.97
2017-10-29T05:49:32.152Z,10.93
2017-10-29T05:51:25.488Z,10.86
2017-10-29T05:52:25.466Z,10.90
2017-10-29T05:54:18.338Z,10.87
2017-10-29T05:55:18.290Z,10.76
2017-10-29T05:57:11.137Z,10.71
2017-10-29T05:58:11.113Z,10.81
2017-10-29T06:00:03.982Z,10.82
2017-10-29T06:01:03.936Z,10.72
2017-10-29T06:02:56.780Z,10.74
2017-10-29T06:03:56.757Z,10.69
2017-10-29T06:05:50.119Z,10.75
2017-10-29T06:06:50.072Z,10.78
2017-10-29T06:08:42.919Z,10.75
2017-10-29T06:09:42.899Z,10.74
2017-10-29T06:11:35.772Z,10.71
2017-10-29T06:12:35.720Z,10.68
2017-10-29T06:14:28.563Z,10.75
2017-10-29T06:15:28.540Z,10.72
2017-10-29T06:17:21.413Z,10.71
2017-10-29T06:18:21.367Z,10.75
2017-10-29T06:20:14.212Z,10.82
2017-10-29T06:21:14.190Z,10.75
2017-10-29T06:23:07.560Z,10.75
2017-10-29T06:24:07.516Z,10.81
2017-10-29T06:26:00.362Z,10.82
2017-10-29T06:27:00.338Z,10.89
2017-10-29T06:28:53.208Z,10.89
2017-10-29T06:29:53.159Z,10.86
2017-10-29T06:31:46.510Z,10.86
2017-10-29T06:32:46.484Z,10.87
2017-10-29T06:34:39.354Z,10.82
2017-10-29T06:35:39.343Z,10.86
2017-10-29T06:37:32.155Z,10.82
2017-10-29T06:38:32.130Z,10.71
2017-10-29T06:40:25.526Z,10.78
2017-10-29T06:41:25.470Z,10.76
2017-10-29T06:43:18.317Z,10.76
2017-10-29T06:44:18.290Z,10.87
2017-10-29T06:46:11.165Z,10.81
2017-10-29T06:47:11.117Z,10.74
2017-10-29T06:49:03.962Z,10.75
2017-10-29T06:50:03.938Z,10.71
2017-10-29T06:51:56.814Z,10.75
2017-10-29T06:52:56.767Z,10.69
2017-10-29T06:54:50.109Z,10.68
2017-10-29T06:55:50.077Z,10.71
2017-10-29T06:57:42.955Z,10.71
2017-10-29T06:58:42.909Z,10.69
2017-10-29T07:00:35.754Z,10.76
2017-10-29T07:01:35.735Z,10.74
2017-10-29T07:03:28.619Z,10.79
2017-10-29T07:04:28.557Z,10.76
2017-10-29T07:06:21.898Z,10.76
2017-10-29T07:07:21.866Z,10.69
2017-10-29T07:09:14.745Z,10.79
2017-10-29T07:10:14.696Z,10.81
2017-10-29T07:12:08.032Z,10.82
2017-10-29T07:13:08.008Z,10.89
2017-10-29T07:15:00.872Z,10.86
2017-10-29T07:16:00.829Z,10.78
2017-10-29T07:17:53.677Z,10.90
2017-10-29T07:18:53.654Z,10.76
2017-10-29T07:20:46.532Z,10.87
2017-10-29T07:21:46.485Z,10.90
2017-10-29T07:23:39.819Z,10.96
2017-10-29T07:24:39.797Z,10.87
2017-10-29T07:26:32.665Z,10.92
2017-10-29T07:27:32.618Z,10.76
2017-10-29T07:29:25.488Z,10.87
2017-10-29T07:30:25.460Z,10.92
2017-10-29T07:32:18.328Z,10.81
2017-10-29T07:33:18.287Z,10.86
2017-10-29T07:35:11.633Z,10.89
2017-10-29T07:36:11.614Z,10.82
2017-10-29T07:38:04.483Z,10.87
2017-10-29T07:39:04.487Z,10.93
2017-10-29T07:40:57.289Z,10.94
2017-10-29T07:41:57.263Z,10.87
2017-10-29T07:43:50.129Z,10.84
2017-10-29T07:44:50.084Z,10.86
2017-10-29T07:46:42.938Z,10.89
2017-10-29T07:47:42.909Z,10.90
2017-10-29T07:49:36.300Z,10.87
2017-10-29T07:50:36.257Z,10.92
2017-10-29T07:52:29.596Z,11.00
2017-10-29T07:53:29.572Z,10.94
2017-10-29T07:55:22.552Z,11.05
2017-10-29T07:56:22.499Z,11.08
2017-10-29T07:58:15.839Z,11.07
2017-10-29T07:59:15.815Z,11.11
2017-10-29T08:01:09.296Z,11.00
2017-10-29T08:02:09.145Z,11.08
2017-10-29T08:04:01.995Z,10.97
2017-10-29T08:05:01.973Z,11.11
2017-10-29T08:06:54.842Z,11.14
2017-10-29T08:07:54.797Z,11.04
2017-10-29T08:09:47.644Z,11.05
2017-10-29T08:10:47.621Z,11.05
2017-10-29T08:12:40.493Z,11.05
2017-10-29T08:13:40.441Z,11.11
2017-10-29T08:15:33.292Z,11.14
2017-10-29T08:16:33.275Z,11.05
2017-10-29T08:18:26.133Z,11.07
2017-10-29T08:19:26.091Z,11.02
2017-10-29T08:21:19.431Z,10.97
2017-10-29T08:22:19.408Z,11.07
2017-10-29T08:24:12.280Z,11.04
2017-10-29T08:25:12.239Z,10.97
2017-10-29T08:27:05.079Z,11.04
2017-10-29T08:28:05.058Z,11.04
2017-10-29T08:29:57.927Z,11.00
2017-10-29T08:30:57.880Z,11.10
2017-10-29T08:32:50.727Z,11.47
2017-10-29T08:33:50.707Z,11.44
2017-10-29T08:35:43.580Z,11.23
2017-10-29T08:36:43.527Z,11.15
2017-10-29T08:38:36.871Z,11.08
2017-10-29T08:39:36.853Z,11.02
2017-10-29T08:41:29.718Z,11.08
2017-10-29T08:42:29.672Z,10.94
2017-10-29T08:44:23.021Z,11.08
2017-10-29T08:45:23.000Z,11.08
2017-10-29T08:47:15.872Z,11.08
2017-10-29T08:48:15.833Z,11.12
2017-10-29T08:50:10.212Z,11.08
2017-10-29T08:51:10.156Z,11.10
2017-10-29T08:53:03.625Z,11.15
2017-10-29T08:54:03.480Z,11.07
2017-10-29T08:55:56.831Z,11.10
2017-10-29T08:56:56.837Z,11.10
2017-10-29T08:58:50.189Z,11.05
2017-10-29T08:59:50.142Z,11.08
2017-10-29T09:01:42.990Z,11.05
2017-10-29T09:02:42.972Z,11.05
2017-10-29T09:04:36.332Z,11.08
2017-10-29T09:05:36.286Z,10.99
2017-10-29T09:07:29.628Z,11.00
2017-10-29T09:08:29.601Z,11.11
2017-10-29T09:10:22.964Z,11.05
2017-10-29T09:11:22.920Z,11.08
2017-10-29T09:13:16.284Z,11.11
2017-10-29T09:14:16.259Z,11.19
2017-10-29T09:16:09.129Z,11.11
2017-10-29T09:17:09.081Z,11.12
2017-10-29T09:19:02.433Z,11.11
2017-10-29T09:20:02.411Z,11.17
2017-10-29T09:21:55.807Z,11.17
2017-10-29T09:22:55.752Z,11.14
2017-10-29T09:24:49.090Z,11.10
2017-10-29T09:25:49.065Z,11.15
2017-10-29T09:27:42.434Z,11.12
2017-10-29T09:28:42.383Z,11.18
2017-10-29T09:30:35.231Z,11.23
2017-10-29T09:31:35.208Z,11.23
2017-10-29T09:33:28.573Z,11.30
2017-10-29T09:34:28.527Z,11.22
2017-10-29T09:36:21.377Z,11.40
2017-10-29T09:37:21.352Z,11.47
2017-10-29T09:39:14.220Z,11.51
2017-10-29T09:40:14.178Z,11.50
2017-10-29T09:42:07.024Z,11.48
2017-10-29T09:43:07.003Z,11.55
2017-10-29T09:44:59.873Z,11.48
2017-10-29T09:45:59.830Z,11.51
2017-10-29T09:47:53.184Z,11.45
2017-10-29T09:48:53.146Z,11.45
2017-10-29T09:50:46.022Z,11.47
2017-10-29T09:51:45.987Z,11.45
2017-10-29T09:53:39.322Z,11.43
2017-10-29T09:54:39.302Z,11.47
2017-10-29T09:56:32.664Z,11.60
2017-10-29T09:57:32.620Z,11.66
2017-10-29T09:59:25.974Z,11.57
2017-10-29T10:00:25.955Z,11.52
2017-10-29T10:02:18.828Z,11.50
2017-10-29T10:03:18.785Z,11.47
2017-10-29T10:05:12.127Z,11.44
2017-10-29T10:06:12.105Z,11.48
2017-10-29T10:08:05.470Z,11.48
2017-10-29T10:09:05.424Z,11.47
2017-10-29T10:10:58.279Z,11.47
2017-10-29T10:11:58.257Z,11.47
2017-10-29T10:13:51.623Z,11.48
2017-10-29T10:14:51.572Z,11.51
2017-10-29T10:16:44.420Z,11.45
2017-10-29T10:17:44.402Z,11.44
2017-10-29T10:19:37.276Z,11.43
2017-10-29T10:20:37.229Z,11.40
2017-10-29T10:22:30.081Z,11.40
2017-10-29T10:23:30.069Z,11.50
2017-10-29T10:25:22.933Z,11.51
2017-10-29T10:26:22.887Z,11.48
2017-10-29T10:28:15.766Z,11.43
2017-10-29T10:29:15.745Z,11.54
2017-10-29T10:31:08.623Z,11.43
2017-10-29T10:32:08.574Z,11.41
2017-10-29T10:34:01.422Z,11.48
2017-10-29T10:35:01.403Z,11.36
2017-10-29T10:36:54.278Z,11.37
2017-10-29T10:37:54.241Z,11.45
2017-10-29T10:39:47.090Z,11.51
2017-10-29T10:40:47.069Z,11.55
2017-10-29T10:42:39.949Z,11.45
2017-10-29T10:43:39.904Z,11.48
2017-10-29T10:45:32.750Z,11.54
2017-10-29T10:46:32.733Z,11.47
2017-10-29T10:48:25.614Z,11.52
2017-10-29T10:49:25.568Z,11.47
2017-10-29T10:51:18.419Z,11.72
2017-10-29T10:52:18.399Z,11.83
2017-10-29T10:54:11.275Z,11.77
2017-10-29T10:55:11.230Z,11.77
2017-10-29T10:57:04.584Z,11.87
2017-10-29T10:58:04.562Z,11.91
2017-10-29T10:59:57.470Z,11.90
2017-10-29T11:00:57.406Z,11.99
2017-10-29T11:02:50.254Z,11.78
2017-10-29T11:03:50.234Z,11.87
2017-10-29T11:05:43.602Z,11.91
2017-10-29T11:06:43.555Z,11.86
2017-10-29T11:08:36.912Z,11.81
2017-10-29T11:09:36.889Z,11.86
2017-10-29T11:11:29.759Z,11.94
2017-10-29T11:12:29.719Z,11.95
2017-10-29T11:14:22.650Z,12.13
2017-10-29T11:15:22.553Z,12.09
2017-10-29T11:17:15.423Z,12.13
2017-10-29T11:18:15.379Z,12.09
2017-10-29T11:20:08.229Z,12.18
2017-10-29T11:21:08.208Z,12.21
2017-10-29T11:23:01.082Z,12.22
2017-10-29T11:24:01.037Z,12.25
2017-10-29T11:25:53.893Z,12.31
2017-10-29T11:26:53.871Z,12.35
2017-10-29T11:28:47.245Z,12.35
2017-10-29T11:29:47.193Z,12.28
2017-10-29T11:31:40.051Z,12.28
2017-10-29T11:32:40.035Z,12.36
2017-10-29T11:34:32.906Z,12.45
2017-10-29T11:35:32.863Z,12.42
2017-10-29T11:37:25.719Z,12.55
2017-10-29T11:38:25.697Z,12.55
2017-10-29T11:40:18.583Z,12.57
2017-10-29T11:41:18.538Z,12.64
2017-10-29T11:43:11.881Z,12.75
2017-10-29T11:44:11.865Z,12.73
2017-10-29T11:46:05.265Z,12.87
2017-10-29T11:47:05.196Z,12.85
2017-10-29T11:48:58.042Z,12.67
2017-10-29T11:49:58.022Z,12.70
2017-10-29T11:51:51.437Z,12.79
2017-10-29T11:52:51.376Z,12.68
2017-10-29T11:54:44.245Z,12.54
2017-10-29T11:55:44.222Z,12.53
2017-10-29T11:57:37.100Z,12.42
2017-10-29T11:58:37.059Z,12.61
2017-10-29T12:00:29.910Z,12.46
2017-10-29T12:01:29.887Z,12.55
2017-10-29T12:03:23.256Z,12.54
2017-10-29T12:04:23.214Z,12.68
2017-10-29T12:06:16.560Z,12.58
2017-10-29T12:07:16.541Z,12.55
2017-10-29T12:09:09.413Z,12.68
2017-10-29T12:10:09.370Z,12.82
2017-10-29T12:12:02.221Z,12.79
2017-10-29T12:13:02.216Z,12.91
2017-10-29T12:14:55.081Z,12.94
2017-10-29T12:15:55.035Z,12.97
2017-10-29T12:17:47.893Z,13.01
2017-10-29T12:18:47.870Z,13.01
2017-10-29T12:20:41.246Z,13.04
2017-10-29T12:21:41.199Z,13.05
2017-10-29T12:23:34.548Z,13.04
2017-10-29T12:24:34.553Z,13.16
2017-10-29T12:26:27.906Z,13.13
2017-10-29T12:27:27.861Z,13.30
2017-10-29T12:29:20.722Z,13.27
2017-10-29T12:30:20.701Z,13.09
2017-10-29T12:32:14.087Z,13.39
2017-10-29T12:33:14.035Z,13.75
2017-10-29T12:35:06.894Z,14.30
2017-10-29T12:36:06.873Z,14.20
2017-10-29T12:38:00.255Z,14.36
2017-10-29T12:39:00.209Z,14.41
2017-10-29T12:40:53.566Z,14.53
2017-10-29T12:41:53.545Z,14.77
2017-10-29T12:43:46.933Z,15.02
2017-10-29T12:44:46.893Z,15.36
2017-10-29T12:46:39.753Z,15.44
2017-10-29T12:47:39.745Z,15.77
2017-10-29T12:49:33.131Z,16.21
2017-10-29T12:50:33.087Z,16.51
2017-10-29T12:52:25.952Z,16.66
2017-10-29T12:53:25.932Z,16.91
2017-10-29T12:55:18.824Z,16.47
2017-10-29T12:56:18.786Z,16.38
2017-10-29T12:58:11.657Z,16.51
2017-10-29T12:59:11.638Z,16.74
2017-10-29T13:01:04.535Z,16.83
2017-10-29T13:02:04.492Z,17.02
2017-10-29T13:03:57.361Z,17.01
2017-10-29T13:04:57.344Z,16.49
2017-10-29T13:06:50.233Z,17.04
2017-10-29T13:07:50.197Z,17.41
2017-10-29T13:09:43.070Z,17.09
2017-10-29T13:10:43.054Z,17.31
2017-10-29T13:12:35.947Z,17.19
2017-10-29T13:13:35.911Z,17.12
2017-10-29T13:15:28.797Z,17.44
2017-10-29T13:16:28.784Z,17.95
2017-10-29T13:18:22.167Z,17.36
2017-10-29T13:19:22.132Z,16.68
2017-10-29T13:21:15.504Z,16.57
2017-10-29T13:22:15.490Z,16.41
2017-10-29T13:24:08.381Z,15.98
2017-10-29T13:25:08.344Z,15.79
2017-10-29T13:27:01.724Z,15.22
2017-10-29T13:28:01.729Z,15.04
2017-10-29T13:29:55.094Z,15.33
2017-10-29T13:30:55.066Z,15.79
2017-10-29T13:32:48.425Z,16.08
2017-10-29T13:33:48.418Z,16.38
2017-10-29T13:35:41.302Z,15.88
2017-10-29T13:36:41.270Z,16.20
2017-10-29T13:38:34.133Z,16.32
2017-10-29T13:39:34.120Z,17.78
2017-10-29T13:41:27.029Z,19.33
2017-10-29T13:42:26.995Z,19.26
2017-10-29T13:44:20.468Z,18.68
2017-10-29T13:45:20.402Z,18.68
2017-10-29T13:47:13.897Z,18.80
2017-10-29T13:48:13.906Z,19.27
2017-10-29T13:50:07.513Z,19.73
2017-10-29T13:51:07.237Z,19.29
2017-10-29T13:53:00.751Z,19.08
2017-10-29T13:54:00.559Z,18.66
2017-10-29T13:55:53.689Z,18.90
2017-10-29T13:56:53.611Z,19.15
2017-10-29T13:58:47.014Z,18.31
2017-10-29T13:59:46.972Z,18.63
2017-10-29T14:01:40.359Z,19.73
2017-10-29T14:02:40.337Z,20.11
2017-10-29T14:04:33.740Z,19.91
2017-10-29T14:05:33.713Z,19.51
2017-10-29T14:07:28.011Z,20.60
2017-10-29T14:08:27.983Z,20.28
2017-10-29T14:10:21.426Z,21.12
2017-10-29T14:11:21.463Z,21.11
2017-10-29T14:13:15.596Z,21.30
2017-10-29T14:14:15.650Z,20.60
2017-10-29T14:16:09.099Z,20.63
2017-10-29T14:17:17.626Z,20.55
2017-10-29T14:19:03.434Z,20.52
2017-10-29T14:20:03.425Z,19.99
2017-10-29T14:21:57.777Z,19.91
2017-10-29T14:22:57.739Z,19.95
2017-10-29T14:24:51.200Z,20.02
2017-10-29T14:25:51.145Z,19.73
2017-10-29T14:27:45.636Z,19.19
2017-10-29T14:28:45.508Z,19.16
2017-10-29T14:30:38.928Z,19.16
2017-10-29T14:31:39.396Z,19.59
2017-10-29T14:33:32.242Z,18.28
2017-10-29T14:34:32.186Z,18.49
2017-10-29T14:36:26.776Z,19.37
2017-10-29T14:37:26.625Z,18.83
2017-10-29T14:39:20.604Z,18.66
2017-10-29T14:40:19.908Z,18.68
2017-10-29T14:42:13.334Z,18.92
2017-10-29T14:43:13.402Z,18.96
2017-10-29T14:45:06.946Z,19.16
2017-10-29T14:46:06.798Z,19.11
2017-10-29T14:48:00.303Z,19.40
2017-10-29T14:49:00.213Z,19.54
2017-10-29T14:50:54.755Z,20.10
2017-10-29T14:51:54.679Z,20.29
2017-10-29T14:53:47.923Z,20.44
2017-10-29T14:54:47.918Z,19.71
2017-10-29T14:56:42.490Z,20.19
2017-10-29T14:57:42.301Z,20.32
2017-10-29T14:59:36.641Z,19.51
2017-10-29T15:00:36.672Z,19.79
2017-10-29T15:02:30.039Z,19.40
2017-10-29T15:03:30.031Z,19.58
2017-10-29T15:05:23.413Z,19.30
2017-10-29T15:06:23.372Z,19.45
2017-10-29T15:08:17.834Z,20.11
2017-10-29T15:09:17.774Z,20.02
2017-10-29T15:11:10.588Z,20.02
2017-10-29T15:12:10.575Z,19.55
2017-10-29T15:14:03.977Z,19.15
2017-10-29T15:15:03.945Z,19.11
2017-10-29T15:16:57.323Z,18.23
2017-10-29T15:17:57.305Z,17.83
2017-10-29T15:19:50.683Z,18.31
2017-10-29T15:20:50.676Z,18.58
2017-10-29T15:22:44.039Z,17.71
2017-10-29T15:23:44.063Z,17.49
2017-10-29T15:25:37.394Z,16.89
2017-10-29T15:26:37.374Z,16.38
2017-10-29T15:28:30.729Z,15.94
2017-10-29T15:29:30.715Z,15.92
2017-10-29T15:31:24.170Z,15.68
2017-10-29T15:32:24.048Z,15.35
2017-10-29T15:34:17.412Z,15.44
2017-10-29T15:35:17.396Z,15.29
2017-10-29T15:37:10.783Z,15.09
2017-10-29T15:38:11.378Z,14.91
2017-10-29T15:40:05.115Z,14.63
2017-10-29T15:41:05.154Z,14.59
2017-10-29T15:42:59.518Z,14.32
2017-10-29T15:43:59.465Z,14.41
2017-10-29T15:45:52.841Z,14.10
2017-10-29T15:46:52.837Z,13.93
2017-10-29T15:48:46.239Z,13.68
2017-10-29T15:49:46.178Z,13.60
2017-10-29T15:51:39.551Z,13.42
2017-10-29T15:52:39.541Z,13.44
2017-10-29T15:54:33.913Z,13.23
2017-10-29T15:55:33.868Z,13.09
2017-10-29T15:57:27.233Z,13.01
2017-10-29T15:58:27.232Z,12.91
2017-10-29T16:00:20.625Z,12.82
2017-10-29T16:01:20.582Z,12.70
2017-10-29T16:03:13.926Z,12.50
2017-10-29T16:04:13.908Z,12.54
2017-10-29T16:06:07.283Z,12.46
2017-10-29T16:07:07.252Z,12.36
2017-10-29T16:09:00.616Z,12.15
2017-10-29T16:10:00.595Z,12.09
2017-10-29T16:11:53.982Z,12.13
2017-10-29T16:12:53.917Z,12.02
2017-10-29T16:14:47.303Z,12.00
2017-10-29T16:15:47.269Z,12.00
2017-10-29T16:17:40.701Z,11.97
2017-10-29T16:18:40.612Z,11.95
2017-10-29T16:20:34.983Z,11.72
2017-10-29T16:21:34.941Z,11.65
2017-10-29T16:23:28.347Z,11.47
2017-10-29T16:24:28.300Z,11.48
2017-10-29T16:26:21.670Z,11.48
2017-10-29T16:27:29.333Z,11.45
2017-10-29T16:29:16.063Z,11.37
2017-10-29T16:30:16.007Z,11.43
2017-10-29T16:32:09.386Z,11.36
2017-10-29T16:33:09.367Z,11.33
2017-10-29T16:35:03.769Z,11.40
2017-10-29T16:36:03.691Z,11.36
2017-10-29T16:37:57.057Z,11.30
2017-10-29T16:38:57.034Z,11.30
2017-10-29T16:40:51.443Z,11.11
2017-10-29T16:41:51.378Z,11.18
2017-10-29T16:43:44.820Z,10.93
2017-10-29T16:44:44.714Z,10.93
2017-10-29T16:46:39.238Z,10.89
2017-10-29T16:47:39.071Z,10.84
2017-10-29T16:49:32.422Z,10.82
2017-10-29T16:50:32.390Z,10.72
2017-10-29T16:52:26.806Z,10.69
2017-10-29T16:53:26.785Z,10.67
2017-10-29T16:55:20.067Z,10.59
2017-10-29T16:56:20.112Z,10.60
2017-10-29T16:58:13.441Z,10.53
2017-10-29T16:59:13.407Z,10.41
2017-10-29T17:01:06.770Z,10.33
2017-10-29T17:02:06.735Z,10.23
2017-10-29T17:04:00.105Z,10.30
2017-10-29T17:05:00.251Z,10.30
2017-10-29T17:06:54.671Z,10.23
2017-10-29T17:07:54.745Z,10.37
2017-10-29T17:09:48.011Z,10.44
2017-10-29T17:10:47.949Z,10.42
2017-10-29T17:12:41.378Z,10.34
2017-10-29T17:13:41.293Z,10.42
2017-10-29T17:15:35.664Z,10.44
2017-10-29T17:16:35.642Z,10.37
2017-10-29T17:18:29.976Z,10.30
2017-10-29T17:19:29.966Z,10.23
2017-10-29T17:21:23.346Z,10.25
2017-10-29T17:22:23.309Z,10.20
2017-10-29T17:24:16.662Z,10.07
2017-10-29T17:25:16.621Z,10.02
2017-10-29T17:27:10.029Z,9.92
2017-10-29T17:28:09.987Z,9.94
2017-10-29T17:30:03.388Z,9.99
2017-10-29T17:31:03.360Z,9.91
2017-10-29T17:32:56.772Z,9.86
2017-10-29T17:33:56.679Z,9.80
2017-10-29T17:35:51.034Z,9.83
2017-10-29T17:36:51.001Z,9.77
2017-10-29T17:38:44.397Z,9.82
2017-10-29T17:39:44.530Z,9.74
2017-10-29T17:41:38.699Z,9.79
2017-10-29T17:42:38.697Z,9.76
2017-10-29T17:44:32.068Z,9.77
2017-10-29T17:45:32.023Z,9.64
2017-10-29T17:47:25.419Z,9.66
2017-10-29T17:48:25.362Z,9.62
2017-10-29T17:50:18.738Z,9.56
2017-10-29T17:51:18.683Z,9.55
2017-10-29T17:53:13.207Z,9.54
2017-10-29T17:54:13.044Z,9.56
2017-10-29T17:56:06.400Z,9.46
2017-10-29T17:57:06.335Z,9.40
2017-10-29T17:59:00.698Z,9.43
2017-10-29T18:00:00.687Z,9.43
2017-10-29T18:01:54.066Z,9.47
2017-10-29T18:02:54.022Z,9.43
2017-10-29T18:04:47.370Z,9.37
2017-10-29T18:05:47.356Z,9.36
2017-10-29T18:07:40.724Z,9.36
2017-10-29T18:08:40.713Z,9.36
2017-10-29T18:10:34.121Z,9.37
2017-10-29T18:11:34.063Z,9.31
2017-10-29T18:13:27.428Z,9.32
2017-10-29T18:14:27.405Z,9.28
2017-10-29T18:16:20.753Z,9.29
2017-10-29T18:17:20.754Z,9.21
2017-10-29T18:19:15.124Z,9.13
2017-10-29T18:20:15.093Z,9.10
2017-10-29T18:22:08.440Z,8.99
2017-10-29T18:23:08.382Z,8.94
2017-10-29T18:25:01.793Z,8.97
2017-10-29T18:26:01.750Z,9.00
2017-10-29T18:27:55.088Z,8.97
2017-10-29T18:28:55.089Z,8.88
2017-10-29T18:30:50.444Z,8.88
2017-10-29T18:31:50.418Z,8.81
2017-10-29T18:33:43.813Z,8.82
2017-10-29T18:34:43.768Z,8.74
2017-10-29T18:36:37.156Z,8.66
2017-10-29T18:37:37.105Z,8.58
2017-10-29T18:39:30.486Z,8.41
2017-10-29T18:40:30.418Z,8.46
2017-10-29T18:42:23.823Z,8.36
2017-10-29T18:43:23.774Z,8.36
2017-10-29T18:45:17.125Z,8.30
2017-10-29T18:46:17.134Z,8.26